Terminal Aerodrome Forecast
Issued by NWS

Home | Current Version | Previous Version | Text Only | Print | Product List | Glossary On
Versions: 1 2 3 4 5 6 7 8 9 10 11 12
876
FTUS43 KOAX 231120
TAFCDR
TAF
KCDR 231120Z 2312/2412 28015G22KT P6SM BKN070
     FM231500 31025G35KT P6SM SCT070
     FM240100 30012KT P6SM SCT070=

USA.gov is the U.S. government's official web portal to all federal, state and local government web resources and services.